sensor_id;sensor_type;location;lat;lon;timestamp;pressure;altitude;pressure_sealevel;temperature;humidity
9893;BME280;4985;49.092;8.542;2022-11-20T00:01:13;98851.97;;;14.78;54.34
9893;BME280;4985;49.092;8.542;2022-11-20T00:03:40;98856.25;;;14.79;54.33
9893;BME280;4985;49.092;8.542;2022-11-20T00:06:10;98850.94;;;14.79;54.32
9893;BME280;4985;49.092;8.542;2022-11-20T00:08:37;98843.81;;;14.79;54.33
9893;BME280;4985;49.092;8.542;2022-11-20T00:11:04;98850.34;;;14.77;54.34
9893;BME280;4985;49.092;8.542;2022-11-20T00:13:31;98851.38;;;14.76;54.37
9893;BME280;4985;49.092;8.542;2022-11-20T00:15:59;98847.91;;;14.75;54.38
9893;BME280;4985;49.092;8.542;2022-11-20T00:18:25;98846.06;;;14.76;54.39
9893;BME280;4985;49.092;8.542;2022-11-20T00:20:52;98841.56;;;14.76;54.38
9893;BME280;4985;49.092;8.542;2022-11-20T00:23:20;98839.34;;;14.73;54.39
9893;BME280;4985;49.092;8.542;2022-11-20T00:25:47;98853.00;;;14.77;54.37
9893;BME280;4985;49.092;8.542;2022-11-20T00:28:13;98846.66;;;14.78;54.34
9893;BME280;4985;49.092;8.542;2022-11-20T00:30:40;98848.50;;;14.77;54.34
9893;BME280;4985;49.092;8.542;2022-11-20T00:33:06;98847.69;;;14.77;54.33
9893;BME280;4985;49.092;8.542;2022-11-20T00:35:33;98849.53;;;14.76;54.34
9893;BME280;4985;49.092;8.542;2022-11-20T00:38:00;98846.06;;;14.76;54.36
9893;BME280;4985;49.092;8.542;2022-11-20T00:40:27;98852.19;;;14.76;54.34
9893;BME280;4985;49.092;8.542;2022-11-20T00:42:57;98847.69;;;14.77;54.33
9893;BME280;4985;49.092;8.542;2022-11-20T00:45:23;98843.41;;;14.76;54.33
9893;BME280;4985;49.092;8.542;2022-11-20T00:47:50;98849.72;;;14.75;54.34
9893;BME280;4985;49.092;8.542;2022-11-20T00:50:16;98849.72;;;14.75;54.34
9893;BME280;4985;49.092;8.542;2022-11-20T00:52:43;98854.22;;;14.74;54.35
9893;BME280;4985;49.092;8.542;2022-11-20T00:55:09;98861.16;;;14.75;54.36
9893;BME280;4985;49.092;8.542;2022-11-20T00:57:37;98856.66;;;14.76;54.37
9893;BME280;4985;49.092;8.542;2022-11-20T01:00:05;98859.50;;;14.74;54.34
9893;BME280;4985;49.092;8.542;2022-11-20T01:02:33;98865.63;;;14.75;54.33
9893;BME280;4985;49.092;8.542;2022-11-20T01:05:00;98864.00;;;14.74;54.35
9893;BME280;4985;49.092;8.542;2022-11-20T01:07:27;98861.34;;;14.74;54.34
9893;BME280;4985;49.092;8.542;2022-11-20T01:09:54;98858.69;;;14.74;54.35
9893;BME280;4985;49.092;8.542;2022-11-20T01:12:20;98856.25;;;14.72;54.35
9893;BME280;4985;49.092;8.542;2022-11-20T01:14:48;98855.22;;;14.73;54.36
9893;BME280;4985;49.092;8.542;2022-11-20T01:17:14;98857.06;;;14.73;54.37
9893;BME280;4985;49.092;8.542;2022-11-20T01:19:41;98860.72;;;14.72;54.37
9893;BME280;4985;49.092;8.542;2022-11-20T01:22:08;98859.88;;;14.71;54.40
9893;BME280;4985;49.092;8.542;2022-11-20T01:24:34;98855.41;;;14.72;54.39
9893;BME280;4985;49.092;8.542;2022-11-20T01:27:01;98854.59;;;14.71;54.38
9893;BME280;4985;49.092;8.542;2022-11-20T01:29:27;98861.72;;;14.71;54.40
9893;BME280;4985;49.092;8.542;2022-11-20T01:31:55;98853.59;;;14.72;54.37
9893;BME280;4985;49.092;8.542;2022-11-20T01:34:22;98856.44;;;14.71;54.37
9893;BME280;4985;49.092;8.542;2022-11-20T01:36:51;98856.03;;;14.67;54.38
9893;BME280;4985;49.092;8.542;2022-11-20T01:39:19;98852.16;;;14.70;54.38
9893;BME280;4985;49.092;8.542;2022-11-20T01:41:47;98850.50;;;14.69;54.41
9893;BME280;4985;49.092;8.542;2022-11-20T01:44:55;98846.25;;;14.68;54.45
9893;BME280;4985;49.092;8.542;2022-11-20T01:47:28;98841.97;;;14.67;54.45
9893;BME280;4985;49.092;8.542;2022-11-20T01:49:59;98847.47;;;14.65;54.51
9893;BME280;4985;49.092;8.542;2022-11-20T01:52:30;98845.22;;;14.62;54.58
9893;BME280;4985;49.092;8.542;2022-11-20T01:55:03;98844.41;;;14.62;54.60
9893;BME280;4985;49.092;8.542;2022-11-20T01:57:33;98834.19;;;14.59;54.59
9893;BME280;4985;49.092;8.542;2022-11-20T02:00:04;98833.00;;;14.61;54.61
9893;BME280;4985;49.092;8.542;2022-11-20T02:02:34;98836.63;;;14.60;54.63
9893;BME280;4985;49.092;8.542;2022-11-20T02:05:11;98832.34;;;14.59;54.66
9893;BME280;4985;49.092;8.542;2022-11-20T02:07:41;98835.19;;;14.57;54.70
9893;BME280;4985;49.092;8.542;2022-11-20T02:10:08;98838.88;;;14.56;54.72
9893;BME280;4985;49.092;8.542;2022-11-20T02:12:34;98831.94;;;14.55;54.74
9893;BME280;4985;49.092;8.542;2022-11-20T02:15:18;98829.28;;;14.55;54.77
9893;BME280;4985;49.092;8.542;2022-11-20T02:17:46;98828.47;;;14.55;54.77
9893;BME280;4985;49.092;8.542;2022-11-20T02:20:14;98831.34;;;14.53;54.76
9893;BME280;4985;49.092;8.542;2022-11-20T02:22:47;98834.59;;;14.55;54.76
9893;BME280;4985;49.092;8.542;2022-11-20T02:25:19;98830.31;;;14.54;54.79
9893;BME280;4985;49.092;8.542;2022-11-20T02:27:46;98824.00;;;14.55;54.75
9893;BME280;4985;49.092;8.542;2022-11-20T02:30:13;98821.56;;;14.54;54.76
9893;BME280;4985;49.092;8.542;2022-11-20T02:32:39;98826.03;;;14.53;54.79
9893;BME280;4985;49.092;8.542;2022-11-20T02:35:08;98826.03;;;14.53;54.78
9893;BME280;4985;49.092;8.542;2022-11-20T02:37:39;98823.59;;;14.52;54.81
9893;BME280;4985;49.092;8.542;2022-11-20T02:40:07;98827.06;;;14.52;54.81
9893;BME280;4985;49.092;8.542;2022-11-20T02:42:36;98820.75;;;14.53;54.80
9893;BME280;4985;49.092;8.542;2022-11-20T02:45:02;98827.06;;;14.52;54.79
9893;BME280;4985;49.092;8.542;2022-11-20T02:47:29;98827.87;;;14.53;54.79
9893;BME280;4985;49.092;8.542;2022-11-20T02:49:56;98828.06;;;14.51;54.79
9893;BME280;4985;49.092;8.542;2022-11-20T02:52:22;98821.97;;;14.51;54.81
9893;BME280;4985;49.092;8.542;2022-11-20T02:54:49;98822.78;;;14.51;54.81
9893;BME280;4985;49.092;8.542;2022-11-20T02:57:16;98822.78;;;14.51;54.82
9893;BME280;4985;49.092;8.542;2022-11-20T02:59:44;98834.19;;;14.52;54.79
9893;BME280;4985;49.092;8.542;2022-11-20T03:02:10;98819.94;;;14.53;54.78
9893;BME280;4985;49.092;8.542;2022-11-20T03:04:38;98823.59;;;14.52;54.77
9893;BME280;4985;49.092;8.542;2022-11-20T03:07:05;98821.75;;;14.52;54.78
9893;BME280;4985;49.092;8.542;2022-11-20T03:09:31;98816.47;;;14.52;54.75
9893;BME280;4985;49.092;8.542;2022-11-20T03:11:58;98818.28;;;14.52;54.75
9893;BME280;4985;49.092;8.542;2022-11-20T03:14:24;98812.19;;;14.51;54.76
9893;BME280;4985;49.092;8.542;2022-11-20T03:16:52;98805.25;;;14.50;54.76
9893;BME280;4985;49.092;8.542;2022-11-20T03:19:19;98801.59;;;14.51;54.76
9893;BME280;4985;49.092;8.542;2022-11-20T03:21:45;98804.44;;;14.50;54.77
9893;BME280;4985;49.092;8.542;2022-11-20T03:24:13;98800.94;;;14.49;54.79
9893;BME280;4985;49.092;8.542;2022-11-20T03:26:40;98806.25;;;14.49;54.80
9893;BME280;4985;49.092;8.542;2022-11-20T03:29:07;98805.25;;;14.50;54.80
9893;BME280;4985;49.092;8.542;2022-11-20T03:31:36;98800.78;;;14.51;54.78
9893;BME280;4985;49.092;8.542;2022-11-20T03:34:04;98799.31;;;14.48;54.82
9893;BME280;4985;49.092;8.542;2022-11-20T03:36:31;98796.87;;;14.47;54.84
9893;BME280;4985;49.092;8.542;2022-11-20T03:38:58;98804.81;;;14.47;54.85
9893;BME280;4985;49.092;8.542;2022-11-20T03:41:26;98807.25;;;14.48;54.85
9893;BME280;4985;49.092;8.542;2022-11-20T03:43:55;98808.06;;;14.49;54.81
9893;BME280;4985;49.092;8.542;2022-11-20T03:46:22;98807.47;;;14.47;54.82
9893;BME280;4985;49.092;8.542;2022-11-20T03:48:49;98806.25;;;14.49;54.79
9893;BME280;4985;49.092;8.542;2022-11-20T03:51:19;98810.94;;;14.47;54.82
9893;BME280;4985;49.092;8.542;2022-11-20T03:53:47;98801.56;;;14.45;54.84
9893;BME280;4985;49.092;8.542;2022-11-20T03:56:16;98810.31;;;14.45;54.86
9893;BME280;4985;49.092;8.542;2022-11-20T03:58:43;98808.47;;;14.46;54.85
9893;BME280;4985;49.092;8.542;2022-11-20T04:01:11;98799.72;;;14.45;54.85
9893;BME280;4985;49.092;8.542;2022-11-20T04:03:39;98805.03;;;14.45;54.85
9893;BME280;4985;49.092;8.542;2022-11-20T04:06:08;98798.72;;;14.46;54.81
9893;BME280;4985;49.092;8.542;2022-11-20T04:08:37;98804.22;;;14.45;54.83
9893;BME280;4985;49.092;8.542;2022-11-20T04:11:11;98799.91;;;14.44;54.86
9893;BME280;4985;49.092;8.542;2022-11-20T04:13:38;98799.50;;;14.40;54.88
9893;BME280;4985;49.092;8.542;2022-11-20T04:16:05;98798.69;;;14.40;54.86
9893;BME280;4985;49.092;8.542;2022-11-20T04:18:32;98806.84;;;14.45;54.84
9893;BME280;4985;49.092;8.542;2022-11-20T04:20:59;98797.25;;;14.44;54.85
9893;BME280;4985;49.092;8.542;2022-11-20T04:23:26;98788.91;;;14.40;54.85
9893;BME280;4985;49.092;8.542;2022-11-20T04:25:54;98797.44;;;14.42;54.88
9893;BME280;4985;49.092;8.542;2022-11-20T04:28:21;98793.78;;;14.43;54.86
9893;BME280;4985;49.092;8.542;2022-11-20T04:30:48;98788.50;;;14.43;54.85
9893;BME280;4985;49.092;8.542;2022-11-20T04:33:14;98792.97;;;14.43;54.86
9893;BME280;4985;49.092;8.542;2022-11-20T04:35:48;98791.13;;;14.43;54.86
9893;BME280;4985;49.092;8.542;2022-11-20T04:38:14;98798.25;;;14.43;54.85
9893;BME280;4985;49.092;8.542;2022-11-20T04:40:41;98788.50;;;14.43;54.83
9893;BME280;4985;49.092;8.542;2022-11-20T04:43:09;98786.03;;;14.42;54.85
9893;BME280;4985;49.092;8.542;2022-11-20T04:45:35;98783.41;;;14.42;54.88
9893;BME280;4985;49.092;8.542;2022-11-20T04:48:02;98781.56;;;14.42;54.86
9893;BME280;4985;49.092;8.542;2022-11-20T04:50:29;98787.88;;;14.41;54.89
9893;BME280;4985;49.092;8.542;2022-11-20T04:52:55;98783.59;;;14.40;54.92
9893;BME280;4985;49.092;8.542;2022-11-20T04:55:25;98771.19;;;14.41;54.90
9893;BME280;4985;49.092;8.542;2022-11-20T04:57:51;98775.84;;;14.39;54.91
9893;BME280;4985;49.092;8.542;2022-11-20T05:00:19;98778.31;;;14.40;54.92
9893;BME280;4985;49.092;8.542;2022-11-20T05:02:46;98785.44;;;14.40;54.92
9893;BME280;4985;49.092;8.542;2022-11-20T05:05:13;98779.31;;;14.39;54.91
9893;BME280;4985;49.092;8.542;2022-11-20T05:07:39;98784.62;;;14.39;54.90
9893;BME280;4985;49.092;8.542;2022-11-20T05:10:07;98787.28;;;14.39;54.89
9893;BME280;4985;49.092;8.542;2022-11-20T05:12:33;98781.16;;;14.39;54.91
9893;BME280;4985;49.092;8.542;2022-11-20T05:15:00;98781.97;;;14.39;54.89
9893;BME280;4985;49.092;8.542;2022-11-20T05:17:28;98778.69;;;14.37;54.86
9893;BME280;4985;49.092;8.542;2022-11-20T05:19:54;98778.50;;;14.39;54.89
9893;BME280;4985;49.092;8.542;2022-11-20T05:22:21;98775.84;;;14.39;54.90
9893;BME280;4985;49.092;8.542;2022-11-20T05:24:47;98774.19;;;14.38;54.93
9893;BME280;4985;49.092;8.542;2022-11-20T05:27:14;98772.38;;;14.38;54.93
9893;BME280;4985;49.092;8.542;2022-11-20T05:29:41;98776.69;;;14.39;54.88
9893;BME280;4985;49.092;8.542;2022-11-20T05:32:07;98778.50;;;14.39;54.88
9893;BME280;4985;49.092;8.542;2022-11-20T05:34:36;98783.81;;;14.39;54.88
9893;BME280;4985;49.092;8.542;2022-11-20T05:37:02;98776.69;;;14.39;54.86
9893;BME280;4985;49.092;8.542;2022-11-20T05:39:29;98775.84;;;14.39;54.86
9893;BME280;4985;49.092;8.542;2022-11-20T05:41:56;98774.03;;;14.39;54.86
9893;BME280;4985;49.092;8.542;2022-11-20T05:44:36;98781.16;;;14.39;54.88
9893;BME280;4985;49.092;8.542;2022-11-20T05:47:03;98776.69;;;14.39;54.86
9893;BME280;4985;49.092;8.542;2022-11-20T05:49:29;98777.66;;;14.38;54.86
9893;BME280;4985;49.092;8.542;2022-11-20T05:51:57;98778.69;;;14.37;54.88
9893;BME280;4985;49.092;8.542;2022-11-20T05:54:24;98766.47;;;14.36;54.90
9893;BME280;4985;49.092;8.542;2022-11-20T05:56:50;98759.13;;;14.38;54.89
9893;BME280;4985;49.092;8.542;2022-11-20T05:59:17;98777.88;;;14.37;54.88
9893;BME280;4985;49.092;8.542;2022-11-20T06:01:43;98772.78;;;14.35;54.92
9893;BME280;4985;49.092;8.542;2022-11-20T06:04:10;98771.75;;;14.36;54.92
9893;BME280;4985;49.092;8.542;2022-11-20T06:06:36;98772.78;;;14.35;54.95
9893;BME280;4985;49.092;8.542;2022-11-20T06:09:05;98771.16;;;14.34;54.96
9893;BME280;4985;49.092;8.542;2022-11-20T06:11:31;98772.78;;;14.35;54.95
9893;BME280;4985;49.092;8.542;2022-11-20T06:13:58;98770.94;;;14.36;54.90
9893;BME280;4985;49.092;8.542;2022-11-20T06:16:25;98772.78;;;14.35;54.91
9893;BME280;4985;49.092;8.542;2022-11-20T06:18:51;98777.47;;;14.33;54.96
9893;BME280;4985;49.092;8.542;2022-11-20T06:21:20;98772.97;;;14.34;54.97
9893;BME280;4985;49.092;8.542;2022-11-20T06:23:47;98778.06;;;14.35;54.92
9893;BME280;4985;49.092;8.542;2022-11-20T06:26:17;98775.44;;;14.35;54.91
9893;BME280;4985;49.092;8.542;2022-11-20T06:28:44;98779.69;;;14.36;54.85
9893;BME280;4985;49.092;8.542;2022-11-20T06:31:12;98776.25;;;14.36;54.87
9893;BME280;4985;49.092;8.542;2022-11-20T06:33:39;98774.59;;;14.35;54.91
9893;BME280;4985;49.092;8.542;2022-11-20T06:36:06;98779.09;;;14.34;54.93
9893;BME280;4985;49.092;8.542;2022-11-20T06:38:33;98764.00;;;14.35;54.93
9893;BME280;4985;49.092;8.542;2022-11-20T06:40:59;98777.47;;;14.33;54.92
9893;BME280;4985;49.092;8.542;2022-11-20T06:43:28;98777.25;;;14.35;54.91
9893;BME280;4985;49.092;8.542;2022-11-20T06:45:57;98778.28;;;14.34;54.92
9893;BME280;4985;49.092;8.542;2022-11-20T06:48:25;98779.09;;;14.34;54.89
9893;BME280;4985;49.092;8.542;2022-11-20T06:50:52;98786.84;;;14.36;54.87
9893;BME280;4985;49.092;8.542;2022-11-20T06:53:19;98785.19;;;14.35;54.87
9893;BME280;4985;49.092;8.542;2022-11-20T06:55:47;98789.69;;;14.34;54.87
9893;BME280;4985;49.092;8.542;2022-11-20T06:58:16;98785.41;;;14.33;54.91
9893;BME280;4985;49.092;8.542;2022-11-20T07:00:44;98785.41;;;14.33;54.91
9893;BME280;4985;49.092;8.542;2022-11-20T07:03:11;98786.00;;;14.35;54.86
9893;BME280;4985;49.092;8.542;2022-11-20T07:05:38;98785.19;;;14.35;54.86
9893;BME280;4985;49.092;8.542;2022-11-20T07:08:05;98801.91;;;14.35;54.83
9893;BME280;4985;49.092;8.542;2022-11-20T07:10:32;98798.22;;;14.36;54.81
9893;BME280;4985;49.092;8.542;2022-11-20T07:12:59;98801.09;;;14.35;54.81
9893;BME280;4985;49.092;8.542;2022-11-20T07:15:26;98810.88;;;14.34;54.85
9893;BME280;4985;49.092;8.542;2022-11-20T07:17:54;98806.59;;;14.33;54.86
9893;BME280;4985;49.092;8.542;2022-11-20T07:20:21;98804.75;;;14.34;54.86
9893;BME280;4985;49.092;8.542;2022-11-20T07:22:53;98805.56;;;14.34;54.83
9893;BME280;4985;49.092;8.542;2022-11-20T07:25:21;98811.87;;;14.33;54.86
9893;BME280;4985;49.092;8.542;2022-11-20T07:27:48;98810.25;;;14.32;54.87
9893;BME280;4985;49.092;8.542;2022-11-20T07:30:15;98810.88;;;14.34;54.83
9893;BME280;4985;49.092;8.542;2022-11-20T07:32:41;98808.22;;;14.34;54.81
9893;BME280;4985;49.092;8.542;2022-11-20T07:35:09;98814.53;;;14.33;54.85
9893;BME280;4985;49.092;8.542;2022-11-20T07:37:36;98809.22;;;14.33;54.83
9893;BME280;4985;49.092;8.542;2022-11-20T07:40:03;98813.50;;;14.34;54.82
9893;BME280;4985;49.092;8.542;2022-11-20T07:42:30;98806.59;;;14.33;54.82
9893;BME280;4985;49.092;8.542;2022-11-20T07:44:57;98818.81;;;14.34;54.81
9893;BME280;4985;49.092;8.542;2022-11-20T07:47:23;98811.87;;;14.33;54.83
9893;BME280;4985;49.092;8.542;2022-11-20T07:49:50;98813.72;;;14.33;54.81
9893;BME280;4985;49.092;8.542;2022-11-20T07:52:20;98818.19;;;14.32;54.82
9893;BME280;4985;49.092;8.542;2022-11-20T07:54:46;98822.69;;;14.32;54.87
9893;BME280;4985;49.092;8.542;2022-11-20T07:57:13;98827.16;;;14.31;54.87
9893;BME280;4985;49.092;8.542;2022-11-20T07:59:39;98813.09;;;14.31;54.87
9893;BME280;4985;49.092;8.542;2022-11-20T08:02:09;98818.19;;;14.32;54.85
9893;BME280;4985;49.092;8.542;2022-11-20T08:04:36;98823.50;;;14.32;54.85
9893;BME280;4985;49.092;8.542;2022-11-20T08:07:02;98825.13;;;14.33;54.83
9893;BME280;4985;49.092;8.542;2022-11-20T08:09:30;98836.72;;;14.32;54.83
9893;BME280;4985;49.092;8.542;2022-11-20T08:11:57;98832.66;;;14.30;54.88
9893;BME280;4985;49.092;8.542;2022-11-20T08:14:42;98836.09;;;14.30;54.90
9893;BME280;4985;49.092;8.542;2022-11-20T08:17:08;98845.06;;;14.29;54.91
9893;BME280;4985;49.092;8.542;2022-11-20T08:19:35;98851.19;;;14.30;54.91
9893;BME280;4985;49.092;8.542;2022-11-20T08:22:01;98844.06;;;14.30;54.89
9893;BME280;4985;49.092;8.542;2022-11-20T08:24:28;98854.66;;;14.30;54.89
9893;BME280;4985;49.092;8.542;2022-11-20T08:26:58;98845.06;;;14.29;54.92
9893;BME280;4985;49.092;8.542;2022-11-20T08:29:25;98844.25;;;14.28;54.90
9893;BME280;4985;49.092;8.542;2022-11-20T08:31:52;98839.78;;;14.29;54.92
9893;BME280;4985;49.092;8.542;2022-11-20T08:34:19;98851.19;;;14.30;54.87
9893;BME280;4985;49.092;8.542;2022-11-20T08:36:45;98855.66;;;14.29;54.90
9893;BME280;4985;49.092;8.542;2022-11-20T08:39:12;98860.16;;;14.28;54.90
9893;BME280;4985;49.092;8.542;2022-11-20T08:41:39;98850.37;;;14.29;54.91
9893;BME280;4985;49.092;8.542;2022-11-20T08:44:08;98854.66;;;14.30;54.88
9893;BME280;4985;49.092;8.542;2022-11-20T08:46:36;98860.97;;;14.29;54.90
9893;BME280;4985;49.092;8.542;2022-11-20T08:49:06;98853.22;;;14.27;54.86
9893;BME280;4985;49.092;8.542;2022-11-20T08:51:33;98859.94;;;14.30;54.87
9893;BME280;4985;49.092;8.542;2022-11-20T08:54:00;98859.94;;;14.30;54.87
9893;BME280;4985;49.092;8.542;2022-11-20T08:56:26;98867.06;;;14.30;54.86
9893;BME280;4985;49.092;8.542;2022-11-20T08:58:53;98860.97;;;14.29;54.87
9893;BME280;4985;49.092;8.542;2022-11-20T09:01:22;98857.06;;;14.25;54.92
9893;BME280;4985;49.092;8.542;2022-11-20T09:03:49;98865.81;;;14.25;54.97
9893;BME280;4985;49.092;8.542;2022-11-20T09:06:16;98860.09;;;14.22;54.99
9893;BME280;4985;49.092;8.542;2022-11-20T09:08:43;98865.81;;;14.25;55.00
9893;BME280;4985;49.092;8.542;2022-11-20T09:11:09;98874.75;;;14.24;55.02
9893;BME280;4985;49.092;8.542;2022-11-20T09:13:36;98865.00;;;14.25;55.00
9893;BME280;4985;49.092;8.542;2022-11-20T09:16:05;98866.63;;;14.26;54.97
9893;BME280;4985;49.092;8.542;2022-11-20T09:18:34;98856.03;;;14.26;54.97
9893;BME280;4985;49.092;8.542;2022-11-20T09:21:04;98868.47;;;14.25;54.97
9893;BME280;4985;49.092;8.542;2022-11-20T09:23:33;98866.63;;;14.26;54.98
9893;BME280;4985;49.092;8.542;2022-11-20T09:26:02;98870.28;;;14.25;55.00
9893;BME280;4985;49.092;8.542;2022-11-20T09:28:29;98880.87;;;14.25;55.02
9893;BME280;4985;49.092;8.542;2022-11-20T09:30:56;98889.03;;;14.23;55.04
9893;BME280;4985;49.092;8.542;2022-11-20T09:33:22;98883.72;;;14.23;55.04
9893;BME280;4985;49.092;8.542;2022-11-20T09:35:50;98894.31;;;14.23;55.03
9893;BME280;4985;49.092;8.542;2022-11-20T09:38:18;98880.25;;;14.23;55.04
9893;BME280;4985;49.092;8.542;2022-11-20T09:40:49;98867.84;;;14.23;55.02
9893;BME280;4985;49.092;8.542;2022-11-20T09:43:20;98873.13;;;14.23;55.03
9893;BME280;4985;49.092;8.542;2022-11-20T09:45:59;98881.28;;;14.22;55.06
9893;BME280;4985;49.092;8.542;2022-11-20T09:48:37;98887.38;;;14.22;55.07
9893;BME280;4985;49.092;8.542;2022-11-20T09:51:14;98883.94;;;14.22;55.07
9893;BME280;4985;49.092;8.542;2022-11-20T09:53:54;98883.72;;;14.23;55.05
9893;BME280;4985;49.092;8.542;2022-11-20T09:56:23;98882.91;;;14.23;55.06
9893;BME280;4985;49.092;8.542;2022-11-20T09:58:52;98881.28;;;14.22;55.06
9893;BME280;4985;49.092;8.542;2022-11-20T10:01:23;98881.91;;;14.24;55.04
9893;BME280;4985;49.092;8.542;2022-11-20T10:03:56;98889.03;;;14.23;55.01
9893;BME280;4985;49.092;8.542;2022-11-20T10:06:29;98882.50;;;14.26;54.98
9893;BME280;4985;49.092;8.542;2022-11-20T10:09:04;98886.16;;;14.25;55.00
9893;BME280;4985;49.092;8.542;2022-11-20T10:11:41;98887.19;;;14.24;55.03
9893;BME280;4985;49.092;8.542;2022-11-20T10:14:19;98888.19;;;14.23;55.05
9893;BME280;4985;49.092;8.542;2022-11-20T10:16:57;98886.38;;;14.23;55.03
9893;BME280;4985;49.092;8.542;2022-11-20T10:19:38;98880.87;;;14.25;55.03
9893;BME280;4985;49.092;8.542;2022-11-20T10:22:17;98879.25;;;14.24;55.03
9893;BME280;4985;49.092;8.542;2022-11-20T10:24:55;98877.62;;;14.23;55.09
9893;BME280;4985;49.092;8.542;2022-11-20T10:27:34;98882.28;;;14.21;55.11
9893;BME280;4985;49.092;8.542;2022-11-20T10:30:09;98891.06;;;14.21;55.12
9893;BME280;4985;49.092;8.542;2022-11-20T10:32:37;98884.94;;;14.21;55.12
9893;BME280;4985;49.092;8.542;2022-11-20T10:35:14;98897.97;;;14.22;55.10
9893;BME280;4985;49.092;8.542;2022-11-20T10:37:45;98891.88;;;14.22;55.09
9893;BME280;4985;49.092;8.542;2022-11-20T10:40:22;98891.06;;;14.21;55.08
9893;BME280;4985;49.092;8.542;2022-11-20T10:42:52;98885.56;;;14.23;55.07
9893;BME280;4985;49.092;8.542;2022-11-20T10:45:31;98887.19;;;14.24;55.06
9893;BME280;4985;49.092;8.542;2022-11-20T10:48:10;98884.53;;;14.24;55.05
9893;BME280;4985;49.092;8.542;2022-11-20T10:50:49;98879.84;;;14.26;55.03
9893;BME280;4985;49.092;8.542;2022-11-20T10:56:19;98874.56;;;14.26;54.97
9893;BME280;4985;49.092;8.542;2022-11-20T10:58:54;98870.09;;;14.26;54.99
9893;BME280;4985;49.092;8.542;2022-11-20T11:01:26;98882.50;;;14.26;55.00
9893;BME280;4985;49.092;8.542;2022-11-20T11:03:55;98877.22;;;14.26;55.03
9893;BME280;4985;49.092;8.542;2022-11-20T11:06:25;98863.97;;;14.26;55.05
9893;BME280;4985;49.092;8.542;2022-11-20T11:08:58;98863.16;;;14.25;55.12
9893;BME280;4985;49.092;8.542;2022-11-20T11:11:30;98859.69;;;14.25;55.11
9893;BME280;4985;49.092;8.542;2022-11-20T11:14:05;98858.06;;;14.24;55.12
9893;BME280;4985;49.092;8.542;2022-11-20T11:16:32;98862.34;;;14.25;55.12
9893;BME280;4985;49.092;8.542;2022-11-20T11:19:11;98859.69;;;14.25;55.10
9893;BME280;4985;49.092;8.542;2022-11-20T11:21:38;98853.22;;;14.27;55.08
9893;BME280;4985;49.092;8.542;2022-11-20T11:24:19;98853.38;;;14.26;55.06
9893;BME280;4985;49.092;8.542;2022-11-20T11:26:52;98845.44;;;14.26;55.06
9893;BME280;4985;49.092;8.542;2022-11-20T11:29:21;98847.09;;;14.27;55.06
9893;BME280;4985;49.092;8.542;2022-11-20T11:31:47;98843.63;;;14.26;55.08
9893;BME280;4985;49.092;8.542;2022-11-20T11:34:17;98832.22;;;14.26;55.09
9893;BME280;4985;49.092;8.542;2022-11-20T11:36:52;98830.38;;;14.26;55.08
9893;BME280;4985;49.092;8.542;2022-11-20T11:39:22;98817.97;;;14.27;55.05
9893;BME280;4985;49.092;8.542;2022-11-20T11:41:50;98816.16;;;14.27;55.04
9893;BME280;4985;49.092;8.542;2022-11-20T11:44:19;98819.63;;;14.28;55.04
9893;BME280;4985;49.092;8.542;2022-11-20T11:47:05;98811.66;;;14.28;55.04
9893;BME280;4985;49.092;8.542;2022-11-20T11:49:35;98811.66;;;14.28;55.05
9893;BME280;4985;49.092;8.542;2022-11-20T11:52:05;98808.38;;;14.26;55.08
9893;BME280;4985;49.092;8.542;2022-11-20T11:54:38;98798.59;;;14.26;55.10
9893;BME280;4985;49.092;8.542;2022-11-20T11:57:14;98798.19;;;14.23;55.12
9893;BME280;4985;49.092;8.542;2022-11-20T11:59:51;98799.44;;;14.27;55.10
9893;BME280;4985;49.092;8.542;2022-11-20T12:02:28;98809.03;;;14.28;55.08
9893;BME280;4985;49.092;8.542;2022-11-20T12:04:59;98801.91;;;14.28;55.08
9893;BME280;4985;49.092;8.542;2022-11-20T12:07:38;98805.34;;;14.29;55.08
9893;BME280;4985;49.092;8.542;2022-11-20T12:10:14;98799.03;;;14.30;55.05
9893;BME280;4985;49.092;8.542;2022-11-20T12:12:44;98792.13;;;14.29;55.06
9893;BME280;4985;49.092;8.542;2022-11-20T12:15:15;98788.47;;;14.30;55.02
9893;BME280;4985;49.092;8.542;2022-11-20T12:17:42;98791.91;;;14.31;55.00
9893;BME280;4985;49.092;8.542;2022-11-20T12:20:13;98787.63;;;14.30;55.03
9893;BME280;4985;49.092;8.542;2022-11-20T12:22:45;98790.50;;;14.28;55.04
9893;BME280;4985;49.092;8.542;2022-11-20T12:25:20;98787.63;;;14.30;55.04
9893;BME280;4985;49.092;8.542;2022-11-20T12:30:45;98791.09;;;14.30;55.02
9893;BME280;4985;49.092;8.542;2022-11-20T12:33:42;98786.63;;;14.31;55.02
9893;BME280;4985;49.092;8.542;2022-11-20T12:36:21;98783.16;;;14.30;55.02
9893;BME280;4985;49.092;8.542;2022-11-20T12:39:02;98769.94;;;14.30;55.04
9893;BME280;4985;49.092;8.542;2022-11-20T12:41:46;98781.31;;;14.31;55.05
9893;BME280;4985;49.092;8.542;2022-11-20T12:45:01;98777.88;;;14.30;55.05
9893;BME280;4985;49.092;8.542;2022-11-20T12:50:28;98793.75;;;14.30;55.09
9893;BME280;4985;49.092;8.542;2022-11-20T12:53:03;98789.28;;;14.31;55.09
9893;BME280;4985;49.092;8.542;2022-11-20T12:55:39;98788.47;;;14.30;55.08
9893;BME280;4985;49.092;8.542;2022-11-20T12:58:12;98789.28;;;14.31;55.07
9893;BME280;4985;49.092;8.542;2022-11-20T13:00:58;98791.72;;;14.32;55.05
9893;BME280;4985;49.092;8.542;2022-11-20T13:03:43;98790.69;;;14.33;55.02
9893;BME280;4985;49.092;8.542;2022-11-20T13:06:15;98788.06;;;14.33;55.01
9893;BME280;4985;49.092;8.542;2022-11-20T13:08:47;98781.94;;;14.33;55.03
9893;BME280;4985;49.092;8.542;2022-11-20T13:11:18;98775.84;;;14.32;55.04
9893;BME280;4985;49.092;8.542;2022-11-20T13:14:04;98772.97;;;14.34;55.01
9893;BME280;4985;49.092;8.542;2022-11-20T13:16:37;98781.75;;;14.34;55.01
9893;BME280;4985;49.092;8.542;2022-11-20T13:19:11;98773.19;;;14.32;54.99
9893;BME280;4985;49.092;8.542;2022-11-20T13:21:40;98768.50;;;14.34;55.01
9893;BME280;4985;49.092;8.542;2022-11-20T13:24:20;98770.12;;;14.35;55.01
9893;BME280;4985;49.092;8.542;2022-11-20T13:26:48;98757.09;;;14.34;54.97
9893;BME280;4985;49.092;8.542;2022-11-20T13:29:27;98757.09;;;14.34;54.99
9893;BME280;4985;49.092;8.542;2022-11-20T13:32:02;98759.75;;;14.34;54.99
9893;BME280;4985;49.092;8.542;2022-11-20T13:34:30;98749.97;;;14.34;54.97
9893;BME280;4985;49.092;8.542;2022-11-20T13:36:57;98758.72;;;14.35;54.96
9893;BME280;4985;49.092;8.542;2022-11-20T13:39:26;98755.06;;;14.36;54.95
9893;BME280;4985;49.092;8.542;2022-11-20T13:41:55;98741.81;;;14.36;54.90
9893;BME280;4985;49.092;8.542;2022-11-20T13:44:25;98760.16;;;14.37;54.90